McDowell, Virginia
Current Conditions -  °F | °C
As of 8:35 PM on Monday 20 Oct 2014 (Local Time) from KVBW Reporting Station
Overcast Overcast  
Wind Chill: 59°   Ceiling: 6500
Heat Index: 59°   Visibility: 10mi
Dew Point: 49°   Wind: 6mph
Humidity: 69%   Direction: 170°S
Pressure: 29.94"   Gusts: NA
Location:  38.34°N, 79.49°W
Report Text: KVBW 210035Z AUTO 17005KT 10SM SCT050 BKN065 OVC080 15/09 A2994 RMK AO2 T01480092
Loading
Personal Weather Stations






























Interactive Weather Map
Tropical Storm Tracking
New forecast layout! Learn more

10-Day Weather Forecast

Advertisements
Track Severe Weather on mobile